CheckWX is a tool to help pilots better visualize weather data.  It is not intended as a substitute for an official pre-flight weather briefing.

22:48:52 UTC

KHCR METAR
Heber City Municipal - Russ McDonald Field Airport
Heber, Utah, USA
Current

34 mins ago

KHCR 052215Z AUTO 21007KT 10SM SCT043 SCT060 SCT080 15/M01 A2968 RMK AO2
Observed
Apr-5 @ 22:15 UTC
Wind
  • 210° at 7 KTS
Visibility
Flight Rules
VFR
Cloud Levels
  • Scattered at 4,300' AGL
  • Scattered at 6,000' AGL
  • Scattered at 8,000' AGL
Temperature
15°C / 59°F
Dewpoint
-1°C / 30°F
Humidity
34%
Altimeter
29.68" Hg
Pressure
1005.12 hPa
Previous

54 mins ago

KHCR 052155Z AUTO 23018G31KT 10SM SCT047 SCT065 SCT075 13/M03 A2968 RMK AO2
Observed
Apr-5 @ 21:55 UTC
Wind
  • 230° at 18 KTS
  • Gusting to 31 KTS
Visibility
Flight Rules
VFR
Cloud Levels
  • Scattered at 4,700' AGL
  • Scattered at 6,500' AGL
  • Scattered at 7,500' AGL
Temperature
13°C / 55°F
Dewpoint
-3°C / 27°F
Humidity
33%
Altimeter
29.68" Hg
Pressure
1005.12 hPa
Previous

1 hour ago

KHCR 052135Z AUTO 21011G22KT 10SM CLR 16/M02 A2969 RMK AO2
Observed
Apr-5 @ 21:35 UTC
Wind
  • 210° at 11 KTS
  • Gusting to 22 KTS
Visibility
Flight Rules
VFR
Cloud Levels
  • Clear skies
Temperature
16°C / 61°F
Dewpoint
-2°C / 28°F
Humidity
29%
Altimeter
29.69" Hg
Pressure
1005.42 hPa